Colby, KS

9:59 AM CST on December 10, 2016 (GMT -0600)
630 Woofter Ave | | Change Station

Elev 3186 ft 39.40 °N, 101.06 °W | Updated 6 seconds ago

Overcast
Overcast
18.9 °F
Feels Like 19 °F
N
0.0
Wind Variable Wind from SE
Gusts 10.0 mph

Today
High -- | Low -- °F
--% Chance of Precip.
Yesterday
High -- | Low -- °F
Precip. -- in
Pressure 30.04 in
Visibility 10.0 miles
Clouds Overcast 500 ft
Windchill 19 °F
Dew Point 16 °F
Humidity 88%
Rainfall 0.00 in
Snow Depth Not available.
7:53 AM 5:20 PM
Waxing Gibbous, 84% visible
METAR KCBK 101535Z AUTO 15009KT 10SM OVC005 M07/M07 A3004 RMK AO2
Pressure 30.04 in
Visibility 10.0 miles
Clouds Overcast 500 ft
Windchill 19 °F
Dew Point 16 °F
Humidity 88%
Rainfall 0.00 in
Snow Depth Not available.
7:53 AM 5:20 PM
Waxing Gibbous, 84% visible
METAR KCBK 101535Z AUTO 15009KT 10SM OVC005 M07/M07 A3004 RMK AO2

10-Day Weather Forecast

Almanac

Astronomy

Dec. 10, 2016 Rise Set
Actual Time
Civil Twilight
Nautical Twilight
Astronomical Twilight
Moon
Length of Visible Light
Length of Day
Tomorrow will be .
, % of the Moon is Illuminated

Today's Extremes

State Highs State Lows

Community

WunderPhotos

Upload Photos

1,956,569 photos uploaded!

WunderBlog® & News

Nearby

Air Quality

  Air Quality AQ Index Pollutant
Not available.

Snow Depth

Station Depth Elevation

Earthquake Activity

City Distance Mag. Time & Date
Minimum magnitude displayed is 2.5.

Coastal Water Temperatures

Place Temperature

Stations

Nearby Weather Stations

Station Location Temp. Windchill Dew Point Humidity Wind Precip. Elev Updated Type
                   

Watches & Warnings

There are currently no watches in effect.